createdAt,value
2022-11-12T00:00:08.470Z,21.58
2022-11-12T00:02:54.146Z,20.67
2022-11-12T00:05:40.059Z,20.98
2022-11-12T00:08:26.426Z,18.90
2022-11-12T00:11:12.551Z,19.73
2022-11-12T00:13:58.513Z,20.23
2022-11-12T00:16:44.507Z,19.48
2022-11-12T00:19:30.406Z,20.17
2022-11-12T00:22:16.296Z,19.85
2022-11-12T00:25:02.599Z,20.58
2022-11-12T00:27:48.543Z,19.05
2022-11-12T00:30:36.481Z,18.50
2022-11-12T00:33:22.332Z,16.48
2022-11-12T00:36:08.853Z,17.02
2022-11-12T00:38:54.657Z,16.70
2022-11-12T00:41:40.548Z,16.15
2022-11-12T00:44:27.568Z,14.73
2022-11-12T00:47:13.154Z,14.73
2022-11-12T00:49:59.141Z,15.07
2022-11-12T00:52:45.272Z,14.30
2022-11-12T00:55:30.814Z,14.82
2022-11-12T00:58:16.773Z,14.32
2022-11-12T01:01:07.835Z,14.55
2022-11-12T01:03:53.693Z,14.65
2022-11-12T01:06:39.824Z,14.38
2022-11-12T01:09:25.470Z,14.40
2022-11-12T01:12:11.154Z,15.20
2022-11-12T01:14:57.020Z,13.95
2022-11-12T01:17:43.032Z,14.57
2022-11-12T01:20:28.901Z,14.50
2022-11-12T01:23:14.816Z,14.73
2022-11-12T01:26:07.793Z,13.98
2022-11-12T01:28:53.812Z,14.55
2022-11-12T01:31:39.487Z,13.85
2022-11-12T01:34:25.800Z,14.57
2022-11-12T01:37:11.602Z,14.25
2022-11-12T01:39:57.495Z,14.02
2022-11-12T01:42:43.383Z,12.93
2022-11-12T01:45:29.259Z,13.18
2022-11-12T01:48:34.519Z,12.70
2022-11-12T01:51:24.090Z,12.00
2022-11-12T01:54:10.718Z,12.27
2022-11-12T01:56:56.542Z,12.27
2022-11-12T01:59:44.438Z,13.35
2022-11-12T02:02:30.202Z,13.82
2022-11-12T02:05:15.996Z,15.38
2022-11-12T02:08:01.881Z,15.32
2022-11-12T02:10:47.954Z,15.65
2022-11-12T02:13:52.322Z,17.48
2022-11-12T02:16:45.061Z,17.08
2022-11-12T02:19:30.767Z,15.75
2022-11-12T02:22:16.705Z,16.95
2022-11-12T02:25:02.677Z,18.05
2022-11-12T02:27:51.617Z,16.42
2022-11-12T02:30:41.749Z,17.80
2022-11-12T02:33:27.497Z,15.77
2022-11-12T02:36:13.299Z,17.20
2022-11-12T02:38:59.303Z,16.13
2022-11-12T02:41:45.117Z,16.40
2022-11-12T02:44:31.134Z,15.93
2022-11-12T02:47:16.821Z,16.13
2022-11-12T02:50:03.471Z,14.73
2022-11-12T02:52:49.183Z,13.98
2022-11-12T02:55:35.226Z,14.98
2022-11-12T02:58:22.594Z,12.68
2022-11-12T03:01:08.495Z,14.70
2022-11-12T03:03:54.381Z,14.85
2022-11-12T03:06:40.319Z,14.18
2022-11-12T03:09:26.314Z,15.25
2022-11-12T03:12:11.613Z,14.45
2022-11-12T03:14:57.662Z,13.50
2022-11-12T03:17:43.859Z,13.20
2022-11-12T03:20:30.117Z,14.52
2022-11-12T03:23:15.865Z,14.32
2022-11-12T03:26:05.100Z,14.02
2022-11-12T03:28:51.473Z,14.65
2022-11-12T03:31:37.589Z,14.40
2022-11-12T03:34:23.411Z,13.40
2022-11-12T03:37:09.417Z,13.10
2022-11-12T03:39:55.076Z,11.95
2022-11-12T03:42:50.590Z,13.10
2022-11-12T03:45:36.679Z,12.75
2022-11-12T03:48:22.426Z,13.05
2022-11-12T03:51:08.057Z,13.00
2022-11-12T03:53:53.932Z,12.32
2022-11-12T03:56:39.841Z,12.20
2022-11-12T03:59:25.905Z,11.57
2022-11-12T04:02:14.357Z,10.50
2022-11-12T04:05:18.729Z,10.68
2022-11-12T04:08:33.802Z,10.82
2022-11-12T04:11:20.975Z,10.35
2022-11-12T04:14:06.916Z,12.13
2022-11-12T04:17:11.093Z,14.07
2022-11-12T04:20:15.620Z,13.70
2022-11-12T04:23:01.428Z,11.43
2022-11-12T04:26:05.668Z,11.45
2022-11-12T04:29:10.167Z,9.80
2022-11-12T04:31:56.067Z,12.53
2022-11-12T04:34:42.080Z,11.80
2022-11-12T04:37:29.310Z,13.35
2022-11-12T04:40:35.448Z,11.50
2022-11-12T04:43:39.657Z,11.25
2022-11-12T04:46:25.524Z,11.73
2022-11-12T04:49:11.420Z,11.73
2022-11-12T04:52:06.004Z,11.40
2022-11-12T04:54:52.065Z,12.43
2022-11-12T04:57:38.214Z,14.48
2022-11-12T05:00:24.206Z,13.45
2022-11-12T05:03:10.304Z,12.07
2022-11-12T05:06:04.343Z,11.18
2022-11-12T05:08:50.059Z,11.30
2022-11-12T05:11:36.169Z,10.95
2022-11-12T05:14:22.148Z,10.50
2022-11-12T05:17:07.889Z,9.32
2022-11-12T05:19:53.920Z,10.10
2022-11-12T05:22:50.478Z,10.50
2022-11-12T05:25:45.018Z,11.50
2022-11-12T05:28:30.408Z,11.45
2022-11-12T05:31:15.718Z,12.23
2022-11-12T05:34:01.653Z,11.82
2022-11-12T05:36:47.769Z,11.35
2022-11-12T05:39:33.716Z,11.73
2022-11-12T05:42:19.229Z,11.70
2022-11-12T05:45:05.218Z,10.98
2022-11-12T05:47:50.875Z,13.15
2022-11-12T05:50:45.395Z,12.32
2022-11-12T05:53:42.884Z,12.32
2022-11-12T05:56:28.541Z,12.38
2022-11-12T05:59:14.611Z,11.55
2022-11-12T06:02:00.659Z,12.20
2022-11-12T06:04:46.494Z,10.80
2022-11-12T06:07:32.506Z,11.73
2022-11-12T06:10:20.618Z,11.32
2022-11-12T06:13:06.770Z,12.85
2022-11-12T06:15:53.283Z,11.75
2022-11-12T06:18:39.073Z,11.55
2022-11-12T06:21:27.572Z,10.32
2022-11-12T06:24:13.586Z,10.98
2022-11-12T06:26:59.613Z,9.93
2022-11-12T06:29:45.621Z,9.70
2022-11-12T06:32:31.738Z,11.18
2022-11-12T06:35:18.278Z,12.82
2022-11-12T06:38:04.161Z,11.02
2022-11-12T06:40:50.017Z,11.77
2022-11-12T06:43:35.948Z,11.02
2022-11-12T06:46:21.521Z,10.82
2022-11-12T06:49:06.962Z,11.75
2022-11-12T06:51:52.909Z,11.00
2022-11-12T06:54:38.673Z,11.65
2022-11-12T06:57:24.657Z,11.70
2022-11-12T07:00:11.769Z,11.30
2022-11-12T07:02:57.311Z,11.75
2022-11-12T07:05:43.208Z,11.68
2022-11-12T07:08:29.624Z,13.20
2022-11-12T07:11:16.378Z,11.57
2022-11-12T07:14:02.140Z,12.23
2022-11-12T07:16:48.185Z,10.60
2022-11-12T07:19:33.931Z,10.85
2022-11-12T07:22:19.792Z,11.73
2022-11-12T07:25:06.171Z,12.80
2022-11-12T07:27:53.266Z,10.60
2022-11-12T07:30:39.235Z,9.98
2022-11-12T07:33:25.717Z,10.07
2022-11-12T07:36:13.452Z,9.23
2022-11-12T07:38:59.391Z,10.45
2022-11-12T07:41:45.033Z,13.20
2022-11-12T07:44:30.888Z,9.50
2022-11-12T07:47:16.850Z,10.85
2022-11-12T07:50:02.743Z,10.57
2022-11-12T07:52:48.672Z,11.63
2022-11-12T07:55:34.706Z,12.25
2022-11-12T07:58:20.499Z,11.18
2022-11-12T08:01:28.262Z,11.43
2022-11-12T08:04:14.060Z,11.98
2022-11-12T08:06:59.788Z,12.10
2022-11-12T08:09:45.438Z,11.55
2022-11-12T08:12:31.476Z,12.07
2022-11-12T08:15:17.269Z,11.57
2022-11-12T08:18:03.318Z,11.77
2022-11-12T08:20:49.173Z,12.32
2022-11-12T08:23:35.213Z,13.98
2022-11-12T08:26:21.106Z,13.75
2022-11-12T08:29:08.606Z,14.68
2022-11-12T08:31:54.458Z,12.40
2022-11-12T08:34:41.310Z,12.90
2022-11-12T08:37:27.091Z,14.13
2022-11-12T08:40:13.134Z,12.57
2022-11-12T08:43:03.428Z,12.40
2022-11-12T08:45:50.071Z,13.00
2022-11-12T08:48:36.689Z,12.85
2022-11-12T08:51:22.389Z,13.52
2022-11-12T08:54:08.277Z,12.55
2022-11-12T08:56:54.123Z,12.25
2022-11-12T08:59:40.057Z,11.85
2022-11-12T09:02:25.843Z,12.02
2022-11-12T09:05:11.705Z,11.13
2022-11-12T09:08:05.409Z,10.70
2022-11-12T09:10:51.301Z,11.35
2022-11-12T09:13:37.208Z,12.32
2022-11-12T09:16:24.141Z,12.50
2022-11-12T09:19:09.992Z,13.00
2022-11-12T09:21:55.858Z,13.02
2022-11-12T09:24:41.857Z,13.57
2022-11-12T09:27:28.282Z,13.25
2022-11-12T09:30:14.551Z,13.00
2022-11-12T09:33:00.313Z,13.32
2022-11-12T09:35:45.907Z,14.07
2022-11-12T09:38:31.681Z,13.10
2022-11-12T09:41:39.929Z,14.13
2022-11-12T09:44:25.722Z,14.73
2022-11-12T09:47:32.583Z,14.75
2022-11-12T09:50:36.552Z,14.63
2022-11-12T09:53:30.280Z,14.50
2022-11-12T09:56:15.969Z,13.90
2022-11-12T09:59:02.051Z,13.50
2022-11-12T10:01:58.479Z,13.77
2022-11-12T10:05:10.403Z,15.63
2022-11-12T10:08:36.689Z,14.35
2022-11-12T10:11:28.755Z,15.70
2022-11-12T10:14:42.239Z,15.02
2022-11-12T10:17:34.203Z,14.85
2022-11-12T10:20:32.520Z,14.18
2022-11-12T10:23:29.769Z,13.73
2022-11-12T10:26:17.241Z,14.57
2022-11-12T10:29:38.419Z,13.30
2022-11-12T10:32:24.236Z,14.18
2022-11-12T10:35:09.872Z,14.85
2022-11-12T10:38:04.450Z,14.38
2022-11-12T10:40:50.243Z,15.25
2022-11-12T10:43:36.295Z,15.73
2022-11-12T10:46:23.625Z,15.25
2022-11-12T10:49:15.856Z,17.35
2022-11-12T10:52:01.653Z,16.27
2022-11-12T10:54:52.424Z,15.38
2022-11-12T10:57:40.609Z,14.55
2022-11-12T11:00:26.699Z,15.20
2022-11-12T11:03:23.299Z,15.52
2022-11-12T11:06:14.990Z,14.93
2022-11-12T11:09:13.155Z,16.05
2022-11-12T11:11:59.286Z,16.10
2022-11-12T11:14:45.198Z,14.93
2022-11-12T11:17:31.060Z,14.98
2022-11-12T11:20:25.282Z,14.40
2022-11-12T11:23:23.361Z,15.90
2022-11-12T11:26:22.628Z,16.27
2022-11-12T11:29:38.095Z,14.43
2022-11-12T11:35:43.604Z,16.90
2022-11-12T11:38:39.530Z,16.77
2022-11-12T11:41:44.203Z,16.98
2022-11-12T11:44:33.065Z,16.53
2022-11-12T11:47:33.957Z,17.08
2022-11-12T11:50:28.468Z,16.77
2022-11-12T11:53:29.938Z,15.95
2022-11-12T11:56:27.255Z,16.35
2022-11-12T11:59:55.180Z,16.38
2022-11-12T12:03:11.912Z,15.60
2022-11-12T12:06:19.085Z,15.35
2022-11-12T12:09:14.097Z,15.43
2022-11-12T12:12:23.741Z,15.85
2022-11-12T12:15:39.657Z,16.40
2022-11-12T12:18:50.941Z,15.80
2022-11-12T12:21:38.888Z,16.33
2022-11-12T12:24:30.432Z,15.23
2022-11-12T12:27:19.175Z,14.98
2022-11-12T12:30:24.937Z,14.25
2022-11-12T12:33:22.625Z,14.57
2022-11-12T12:36:12.807Z,14.55
2022-11-12T12:39:25.597Z,13.65
2022-11-12T12:42:13.105Z,13.40
2022-11-12T12:45:05.409Z,13.73
2022-11-12T12:47:51.109Z,13.60
2022-11-12T12:50:37.864Z,13.13
2022-11-12T12:53:29.872Z,12.43
2022-11-12T12:56:15.730Z,12.05
2022-11-12T12:59:10.881Z,12.95
2022-11-12T13:04:49.850Z,12.48
2022-11-12T13:07:52.634Z,12.75
2022-11-12T13:10:41.697Z,13.25
2022-11-12T13:13:33.036Z,13.32
2022-11-12T13:16:51.232Z,13.35
2022-11-12T13:19:56.859Z,12.82
2022-11-12T13:22:42.213Z,13.20
2022-11-12T13:25:29.693Z,12.80
2022-11-12T13:28:15.484Z,12.18
2022-11-12T13:31:02.050Z,12.75
2022-11-12T13:33:47.657Z,13.13
2022-11-12T13:36:33.473Z,11.95
2022-11-12T13:39:20.127Z,12.30
2022-11-12T13:42:32.312Z,12.10
2022-11-12T13:45:23.692Z,11.85
2022-11-12T13:48:13.857Z,11.48
2022-11-12T13:51:06.274Z,11.38
2022-11-12T13:53:57.528Z,11.85
2022-11-12T13:56:44.581Z,11.50
2022-11-12T13:59:30.254Z,11.60
2022-11-12T14:02:26.426Z,11.40
2022-11-12T14:05:17.208Z,11.60
2022-11-12T14:08:26.091Z,11.90
2022-11-12T14:11:44.074Z,12.05
2022-11-12T14:14:35.552Z,12.30
2022-11-12T14:17:45.954Z,11.50
2022-11-12T14:20:41.434Z,11.48
2022-11-12T14:23:27.979Z,11.57
2022-11-12T14:26:14.465Z,11.60
2022-11-12T14:29:00.498Z,10.85
2022-11-12T14:31:46.181Z,11.13
2022-11-12T14:34:33.338Z,10.50
2022-11-12T14:37:39.863Z,10.82
2022-11-12T14:40:31.181Z,10.60
2022-11-12T14:43:27.301Z,11.25
2022-11-12T14:46:30.463Z,10.85
2022-11-12T14:49:44.783Z,11.77
2022-11-12T14:52:32.925Z,11.60
2022-11-12T14:55:27.602Z,11.57
2022-11-12T14:58:17.117Z,12.23
2022-11-12T15:02:08.860Z,12.07
2022-11-12T15:05:00.336Z,13.25
2022-11-12T15:08:03.183Z,13.05
2022-11-12T15:10:49.486Z,13.55
2022-11-12T15:13:39.106Z,13.40
2022-11-12T15:16:35.259Z,13.93
2022-11-12T15:19:25.245Z,14.45
2022-11-12T15:22:20.449Z,13.43
2022-11-12T15:25:26.107Z,13.77
2022-11-12T15:28:21.659Z,14.85
2022-11-12T15:31:15.886Z,14.45
2022-11-12T15:34:27.999Z,14.13
2022-11-12T15:37:19.932Z,14.40
2022-11-12T15:40:11.360Z,14.50
2022-11-12T15:42:57.318Z,14.05
2022-11-12T15:45:43.377Z,14.90
2022-11-12T15:48:29.122Z,14.77
2022-11-12T15:51:15.571Z,14.98
2022-11-12T15:54:01.294Z,16.05
2022-11-12T15:56:47.666Z,15.85
2022-11-12T15:59:33.676Z,14.52
2022-11-12T16:02:19.792Z,14.90
2022-11-12T16:05:11.827Z,14.00
2022-11-12T16:07:57.381Z,16.30
2022-11-12T16:10:44.008Z,15.75
2022-11-12T16:13:31.334Z,15.32
2022-11-12T16:16:18.014Z,15.52
2022-11-12T16:19:03.916Z,16.15
2022-11-12T16:21:50.042Z,14.75
2022-11-12T16:24:35.806Z,15.35
2022-11-12T16:27:22.839Z,16.00
2022-11-12T16:30:15.963Z,17.08
2022-11-12T16:33:01.977Z,17.27
2022-11-12T16:35:47.801Z,17.25
2022-11-12T16:38:33.766Z,18.55
2022-11-12T16:41:19.845Z,17.58
2022-11-12T16:44:05.795Z,18.77
2022-11-12T16:46:51.790Z,19.27
2022-11-12T16:49:38.958Z,17.88
2022-11-12T16:52:25.812Z,19.95
2022-11-12T16:55:11.513Z,18.42
2022-11-12T16:57:57.257Z,18.50
2022-11-12T17:00:44.642Z,18.65
2022-11-12T17:03:30.521Z,18.30
2022-11-12T17:06:16.329Z,18.33
2022-11-12T17:09:06.127Z,16.50
2022-11-12T17:11:51.998Z,18.85
2022-11-12T17:14:38.004Z,18.52
2022-11-12T17:17:24.093Z,19.90
2022-11-12T17:20:10.161Z,17.02
2022-11-12T17:22:56.167Z,16.58
2022-11-12T17:25:42.074Z,17.90
2022-11-12T17:28:29.772Z,17.70
2022-11-12T17:31:17.391Z,15.90
2022-11-12T17:34:05.206Z,17.80
2022-11-12T17:36:50.775Z,16.65
2022-11-12T17:39:36.670Z,16.55
2022-11-12T17:42:22.552Z,16.55
2022-11-12T17:45:09.092Z,18.02
2022-11-12T17:47:54.726Z,15.70
2022-11-12T17:50:40.760Z,16.88
2022-11-12T17:53:27.203Z,17.15
2022-11-12T17:56:14.403Z,16.85
2022-11-12T17:59:01.368Z,17.10
2022-11-12T18:01:47.472Z,18.23
2022-11-12T18:04:33.387Z,15.82
2022-11-12T18:07:19.472Z,17.08
2022-11-12T18:10:06.229Z,16.63
2022-11-12T18:12:52.535Z,15.30
2022-11-12T18:15:38.688Z,15.15
2022-11-12T18:18:24.586Z,14.40
2022-11-12T18:21:10.540Z,17.90
2022-11-12T18:23:56.415Z,14.57
2022-11-12T18:26:42.931Z,15.48
2022-11-12T18:29:28.944Z,15.50
2022-11-12T18:32:15.091Z,16.02
2022-11-12T18:35:00.879Z,16.08
2022-11-12T18:37:46.818Z,16.73
2022-11-12T18:40:32.769Z,16.33
2022-11-12T18:43:18.698Z,18.42
2022-11-12T18:46:05.052Z,17.88
2022-11-12T18:48:51.023Z,17.40
2022-11-12T18:51:39.370Z,16.83
2022-11-12T18:54:25.119Z,17.15
2022-11-12T18:57:11.198Z,18.08
2022-11-12T18:59:58.159Z,17.77
2022-11-12T19:02:43.867Z,18.35
2022-11-12T19:05:29.786Z,17.77
2022-11-12T19:08:16.060Z,19.05
2022-11-12T19:11:06.742Z,19.65
2022-11-12T19:13:53.369Z,18.00
2022-11-12T19:16:42.967Z,17.77
2022-11-12T19:19:28.855Z,17.67
2022-11-12T19:22:15.038Z,17.75
2022-11-12T19:25:06.838Z,17.65
2022-11-12T19:27:53.170Z,17.00
2022-11-12T19:30:39.077Z,17.40
2022-11-12T19:33:24.919Z,17.60
2022-11-12T19:36:12.943Z,18.27
2022-11-12T19:38:59.558Z,18.35
2022-11-12T19:41:45.500Z,18.27
2022-11-12T19:44:31.295Z,18.23
2022-11-12T19:47:17.466Z,17.95
2022-11-12T19:50:02.856Z,17.85
2022-11-12T19:52:48.665Z,19.63
2022-11-12T19:55:39.594Z,18.35
2022-11-12T19:58:25.919Z,16.45
2022-11-12T20:01:14.125Z,18.13
2022-11-12T20:03:59.944Z,17.77
2022-11-12T20:06:46.306Z,20.15
2022-11-12T20:09:32.265Z,19.00
2022-11-12T20:12:18.215Z,18.50
2022-11-12T20:15:04.356Z,19.27
2022-11-12T20:17:50.456Z,20.63
2022-11-12T20:20:36.115Z,20.08
2022-11-12T20:23:26.065Z,19.92
2022-11-12T20:26:14.387Z,20.20
2022-11-12T20:29:00.373Z,22.02
2022-11-12T20:31:46.369Z,21.35
2022-11-12T20:34:32.130Z,20.70
2022-11-12T20:37:18.538Z,20.55
2022-11-12T20:40:06.008Z,20.95
2022-11-12T20:42:51.928Z,20.17
2022-11-12T20:45:37.774Z,20.60
2022-11-12T20:48:26.484Z,21.63
2022-11-12T20:51:24.780Z,20.75
2022-11-12T20:54:11.527Z,20.88
2022-11-12T20:56:57.193Z,20.70
2022-11-12T20:59:43.112Z,18.55
2022-11-12T21:02:28.998Z,20.98
2022-11-12T21:05:17.308Z,20.73
2022-11-12T21:08:03.237Z,20.35
2022-11-12T21:10:50.153Z,19.00
2022-11-12T21:13:36.001Z,21.50
2022-11-12T21:16:21.882Z,19.67
2022-11-12T21:19:07.747Z,20.35
2022-11-12T21:21:53.796Z,22.63
2022-11-12T21:24:39.572Z,22.85
2022-11-12T21:27:25.447Z,21.85
2022-11-12T21:30:11.852Z,21.85
2022-11-12T21:32:57.854Z,19.90
2022-11-12T21:35:43.806Z,21.45
2022-11-12T21:38:31.197Z,23.40
2022-11-12T21:41:18.728Z,18.92
2022-11-12T21:44:04.716Z,20.33
2022-11-12T21:46:50.389Z,19.98
2022-11-12T21:49:35.901Z,21.98
2022-11-12T21:52:21.811Z,20.75
2022-11-12T21:55:08.041Z,20.73
2022-11-12T21:57:53.741Z,20.15
2022-11-12T22:00:42.119Z,21.05
2022-11-12T22:03:30.896Z,21.17
2022-11-12T22:06:16.685Z,22.13
2022-11-12T22:09:02.387Z,22.40
2022-11-12T22:11:48.360Z,20.20
2022-11-12T22:14:33.744Z,22.38
2022-11-12T22:17:19.951Z,20.05
2022-11-12T22:20:06.369Z,20.60
2022-11-12T22:22:52.516Z,19.33
2022-11-12T22:25:37.769Z,20.58
2022-11-12T22:28:23.940Z,20.42
2022-11-12T22:31:11.410Z,22.98
2022-11-12T22:33:58.161Z,20.90
2022-11-12T22:36:43.750Z,23.55
2022-11-12T22:39:29.642Z,21.17
2022-11-12T22:42:15.361Z,19.85
2022-11-12T22:45:01.165Z,19.45
2022-11-12T22:47:47.431Z,20.88
2022-11-12T22:50:33.463Z,22.35
2022-11-12T22:53:19.051Z,20.52
2022-11-12T22:56:06.031Z,21.70
2022-11-12T22:58:51.777Z,19.92
2022-11-12T23:01:37.673Z,20.27
2022-11-12T23:04:23.529Z,22.65
2022-11-12T23:07:09.256Z,20.35
2022-11-12T23:09:55.176Z,21.35
2022-11-12T23:12:41.152Z,21.38
2022-11-12T23:15:30.478Z,22.98
2022-11-12T23:18:16.106Z,20.98
2022-11-12T23:21:04.249Z,21.30
2022-11-12T23:23:50.056Z,20.73
2022-11-12T23:26:35.718Z,22.90
2022-11-12T23:29:21.728Z,21.67
2022-11-12T23:32:07.354Z,22.27
2022-11-12T23:34:53.456Z,22.20
2022-11-12T23:37:39.282Z,22.17
2022-11-12T23:40:30.710Z,22.95
2022-11-12T23:43:17.128Z,23.52
2022-11-12T23:46:02.884Z,22.67
2022-11-12T23:48:48.757Z,22.75
2022-11-12T23:51:34.609Z,21.33
2022-11-12T23:54:20.563Z,22.42
2022-11-12T23:57:06.528Z,21.92
2022-11-12T23:59:52.500Z,22.95
